Aviation Digital Data Service (ADDS)

Output produced by METARs form (1554 UTC 23 April 2017)
found at http://www.aviationweather.gov/adds/metars/
 
HRYR 231530Z VRB02KT 9999 SCT025 24/16 Q1018 NOSIG
HRYR 231100Z 2312/2418 16008KT 9999 FEW023CB SCT025 
     TEMPO 2313/2318 12012KT -TSRA FEW022CB BKN024 
     FM232100 26005KT SCT026 
     BECMG 2402/2405 00000KT 7000 FEW026 SCT100 
     TEMPO2410/2415 17010KT 9999 TSRA FEW022CB BKN025